createdAt,value
2022-07-26T00:00:34.737Z,989.34
2022-07-26T00:01:34.767Z,989.29
2022-07-26T00:02:34.807Z,989.27
2022-07-26T00:03:34.705Z,989.24
2022-07-26T00:04:34.650Z,989.26
2022-07-26T00:05:34.738Z,989.26
2022-07-26T00:06:34.789Z,989.23
2022-07-26T00:07:36.471Z,989.17
2022-07-26T00:08:34.669Z,989.22
2022-07-26T00:09:34.617Z,989.24
2022-07-26T00:10:34.605Z,989.18
2022-07-26T00:11:34.761Z,989.18
2022-07-26T00:12:34.607Z,989.21
2022-07-26T00:13:34.625Z,989.20
2022-07-26T00:14:34.537Z,989.25
2022-07-26T00:15:34.565Z,989.28
2022-07-26T00:16:34.616Z,989.29
2022-07-26T00:17:34.613Z,989.26
2022-07-26T00:18:34.534Z,989.30
2022-07-26T00:19:34.502Z,989.24
2022-07-26T00:20:34.585Z,989.24
2022-07-26T00:21:34.480Z,989.18
2022-07-26T00:22:34.504Z,989.19
2022-07-26T00:23:34.662Z,989.16
2022-07-26T00:24:35.610Z,989.17
2022-07-26T00:25:35.440Z,989.16
2022-07-26T00:26:34.422Z,989.13
2022-07-26T00:27:34.434Z,989.17
2022-07-26T00:28:34.431Z,989.14
2022-07-26T00:29:34.497Z,989.15
2022-07-26T00:30:34.394Z,989.15
2022-07-26T00:31:34.445Z,989.09
2022-07-26T00:32:34.357Z,989.15
2022-07-26T00:33:34.912Z,989.15
2022-07-26T00:34:34.339Z,989.11
2022-07-26T00:35:34.303Z,989.16
2022-07-26T00:36:34.342Z,989.16
2022-07-26T00:37:34.324Z,989.23
2022-07-26T00:38:34.360Z,989.19
2022-07-26T00:39:34.323Z,989.22
2022-07-26T00:40:34.267Z,989.24
2022-07-26T00:41:34.254Z,989.21
2022-07-26T00:42:34.244Z,989.20
2022-07-26T00:43:34.240Z,989.15
2022-07-26T00:44:34.230Z,989.16
2022-07-26T00:45:34.235Z,989.15
2022-07-26T00:46:34.329Z,989.19
2022-07-26T00:47:34.195Z,989.21
2022-07-26T00:48:34.261Z,989.21
2022-07-26T00:49:34.168Z,989.18
2022-07-26T00:50:34.169Z,989.20
2022-07-26T00:51:34.195Z,989.25
2022-07-26T00:52:34.182Z,989.30
2022-07-26T00:53:34.123Z,989.35
2022-07-26T00:54:34.918Z,989.30
2022-07-26T00:55:34.122Z,989.33
2022-07-26T00:56:34.160Z,989.33
2022-07-26T00:57:34.175Z,989.40
2022-07-26T00:58:34.116Z,989.40
2022-07-26T00:59:34.095Z,989.44
2022-07-26T01:00:34.062Z,989.45
2022-07-26T01:01:34.237Z,989.45
2022-07-26T01:02:34.096Z,989.50
2022-07-26T01:03:39.928Z,989.49
2022-07-26T01:04:35.971Z,989.46
2022-07-26T01:05:34.003Z,989.48
2022-07-26T01:06:33.977Z,989.50
2022-07-26T01:07:33.992Z,989.49
2022-07-26T01:08:34.035Z,989.50
2022-07-26T01:09:33.970Z,989.50
2022-07-26T01:10:33.923Z,989.49
2022-07-26T01:11:33.973Z,989.52
2022-07-26T01:12:33.974Z,989.48
2022-07-26T01:13:35.425Z,989.53
2022-07-26T01:14:34.915Z,989.47
2022-07-26T01:15:33.886Z,989.49
2022-07-26T01:16:33.978Z,989.46
2022-07-26T01:17:34.872Z,989.46
2022-07-26T01:18:35.125Z,989.50
2022-07-26T01:19:33.833Z,989.48
2022-07-26T01:20:33.820Z,989.50
2022-07-26T01:21:33.823Z,989.47
2022-07-26T01:22:33.813Z,989.52
2022-07-26T01:23:33.805Z,989.47
2022-07-26T01:24:33.806Z,989.45
2022-07-26T01:25:33.791Z,989.50
2022-07-26T01:26:34.901Z,989.50
2022-07-26T01:27:34.328Z,989.52
2022-07-26T01:28:34.832Z,989.50
2022-07-26T01:29:36.186Z,989.52
2022-07-26T01:30:33.740Z,989.49
2022-07-26T01:31:33.771Z,989.48
2022-07-26T01:32:33.722Z,989.52
2022-07-26T01:33:33.775Z,989.54
2022-07-26T01:34:33.682Z,989.48
2022-07-26T01:35:33.687Z,989.52
2022-07-26T01:36:33.902Z,989.49
2022-07-26T01:37:33.690Z,989.49
2022-07-26T01:38:33.633Z,989.49
2022-07-26T01:39:33.667Z,989.48
2022-07-26T01:40:33.609Z,989.49
2022-07-26T01:41:38.220Z,989.51
2022-07-26T01:42:33.663Z,989.51
2022-07-26T01:43:33.615Z,989.47
2022-07-26T01:44:33.592Z,989.50
2022-07-26T01:45:33.639Z,989.46
2022-07-26T01:46:33.562Z,989.49
2022-07-26T01:47:33.592Z,989.43
2022-07-26T01:48:33.597Z,989.42
2022-07-26T01:49:33.522Z,989.45
2022-07-26T01:50:33.542Z,989.48
2022-07-26T01:51:33.528Z,989.49
2022-07-26T01:52:33.531Z,989.47
2022-07-26T01:53:33.503Z,989.49
2022-07-26T01:54:33.446Z,989.52
2022-07-26T01:55:33.462Z,989.49
2022-07-26T01:56:33.449Z,989.53
2022-07-26T01:57:33.422Z,989.51
2022-07-26T01:58:33.468Z,989.52
2022-07-26T01:59:33.426Z,989.49
2022-07-26T02:00:33.434Z,989.48
2022-07-26T02:01:38.824Z,989.51
2022-07-26T02:02:34.486Z,989.51
2022-07-26T02:03:33.444Z,989.53
2022-07-26T02:04:33.395Z,989.52
2022-07-26T02:05:33.414Z,989.48
2022-07-26T02:06:33.820Z,989.58
2022-07-26T02:07:33.325Z,989.57
2022-07-26T02:08:33.353Z,989.58
2022-07-26T02:09:39.616Z,989.58
2022-07-26T02:10:35.344Z,989.56
2022-07-26T02:11:33.304Z,989.56
2022-07-26T02:12:33.319Z,989.54
2022-07-26T02:13:33.291Z,989.54
2022-07-26T02:14:33.253Z,989.54
2022-07-26T02:15:33.331Z,989.52
2022-07-26T02:16:33.220Z,989.54
2022-07-26T02:17:33.262Z,989.57
2022-07-26T02:18:33.460Z,989.57
2022-07-26T02:19:33.191Z,989.51
2022-07-26T02:20:33.255Z,989.54
2022-07-26T02:21:33.208Z,989.55
2022-07-26T02:22:33.217Z,989.53
2022-07-26T02:23:33.197Z,989.56
2022-07-26T02:24:33.150Z,989.55
2022-07-26T02:25:33.133Z,989.55
2022-07-26T02:26:33.114Z,989.51
2022-07-26T02:27:33.137Z,989.55
2022-07-26T02:28:33.220Z,989.53
2022-07-26T02:29:33.129Z,989.46
2022-07-26T02:30:33.107Z,989.52
2022-07-26T02:31:33.123Z,989.53
2022-07-26T02:32:33.068Z,989.52
2022-07-26T02:33:33.051Z,989.49
2022-07-26T02:34:34.178Z,989.49
2022-07-26T02:35:34.040Z,989.52
2022-07-26T02:36:33.060Z,989.52
2022-07-26T02:37:40.770Z,989.51
2022-07-26T02:38:34.021Z,989.52
2022-07-26T02:39:32.991Z,989.46
2022-07-26T02:40:33.035Z,989.55
2022-07-26T02:41:32.986Z,989.50
2022-07-26T02:42:33.940Z,989.51
2022-07-26T02:43:33.004Z,989.49
2022-07-26T02:44:32.926Z,989.50
2022-07-26T02:45:32.978Z,989.49
2022-07-26T02:46:32.971Z,989.50
2022-07-26T02:47:32.991Z,989.52
2022-07-26T02:48:33.113Z,989.51
2022-07-26T02:49:32.866Z,989.44
2022-07-26T02:50:32.886Z,989.47
2022-07-26T02:51:32.874Z,989.41
2022-07-26T02:52:32.881Z,989.45
2022-07-26T02:53:32.828Z,989.47
2022-07-26T02:54:32.862Z,989.43
2022-07-26T02:55:33.459Z,989.49
2022-07-26T02:56:32.847Z,989.54
2022-07-26T02:57:45.331Z,989.45
2022-07-26T02:58:33.844Z,989.52
2022-07-26T02:59:33.338Z,989.48
2022-07-26T03:00:32.766Z,989.56
2022-07-26T03:01:32.841Z,989.53
2022-07-26T03:02:32.807Z,989.55
2022-07-26T03:03:32.771Z,989.55
2022-07-26T03:04:32.774Z,989.60
2022-07-26T03:05:32.750Z,989.62
2022-07-26T03:06:32.782Z,989.59
2022-07-26T03:07:32.762Z,989.61
2022-07-26T03:08:32.708Z,989.60
2022-07-26T03:09:32.704Z,989.66
2022-07-26T03:10:32.639Z,989.68
2022-07-26T03:11:32.650Z,989.64
2022-07-26T03:12:32.678Z,989.69
2022-07-26T03:13:32.645Z,989.63
2022-07-26T03:14:32.615Z,989.63
2022-07-26T03:15:32.644Z,989.68
2022-07-26T03:16:32.678Z,989.61
2022-07-26T03:17:32.568Z,989.62
2022-07-26T03:18:32.551Z,989.65
2022-07-26T03:19:32.587Z,989.62
2022-07-26T03:20:32.538Z,989.67
2022-07-26T03:21:32.567Z,989.62
2022-07-26T03:22:32.527Z,989.63
2022-07-26T03:23:32.514Z,989.63
2022-07-26T03:24:32.522Z,989.66
2022-07-26T03:25:33.311Z,989.64
2022-07-26T03:26:32.498Z,989.68
2022-07-26T03:27:32.467Z,989.68
2022-07-26T03:28:32.441Z,989.67
2022-07-26T03:29:32.507Z,989.69
2022-07-26T03:30:32.443Z,989.71
2022-07-26T03:31:32.487Z,989.72
2022-07-26T03:32:32.420Z,989.68
2022-07-26T03:33:32.425Z,989.66
2022-07-26T03:34:32.408Z,989.75
2022-07-26T03:35:36.614Z,989.78
2022-07-26T03:36:32.410Z,989.76
2022-07-26T03:37:46.123Z,989.75
2022-07-26T03:38:33.362Z,989.74
2022-07-26T03:39:32.346Z,989.71
2022-07-26T03:40:32.368Z,989.71
2022-07-26T03:41:32.329Z,989.78
2022-07-26T03:42:32.468Z,989.75
2022-07-26T03:43:32.325Z,989.67
2022-07-26T03:44:32.280Z,989.78
2022-07-26T03:45:32.246Z,989.79
2022-07-26T03:46:32.454Z,989.73
2022-07-26T03:47:32.220Z,989.77
2022-07-26T03:48:32.288Z,989.79
2022-07-26T03:49:32.293Z,989.79
2022-07-26T03:50:32.222Z,989.74
2022-07-26T03:51:32.238Z,989.79
2022-07-26T03:52:32.226Z,989.83
2022-07-26T03:53:32.225Z,989.83
2022-07-26T03:54:32.256Z,989.80
2022-07-26T03:55:32.199Z,989.74
2022-07-26T03:56:32.249Z,989.76
2022-07-26T03:57:32.164Z,989.74
2022-07-26T03:58:32.197Z,989.75
2022-07-26T03:59:32.148Z,989.79
2022-07-26T04:00:32.153Z,989.78
2022-07-26T04:01:32.220Z,989.76
2022-07-26T04:02:32.211Z,989.72
2022-07-26T04:03:32.097Z,989.71
2022-07-26T04:04:32.149Z,989.80
2022-07-26T04:05:32.097Z,989.80
2022-07-26T04:06:32.105Z,989.69
2022-07-26T04:07:32.077Z,989.75
2022-07-26T04:08:32.041Z,989.71
2022-07-26T04:09:32.040Z,989.74
2022-07-26T04:10:31.994Z,989.73
2022-07-26T04:11:32.761Z,989.74
2022-07-26T04:12:31.978Z,989.64
2022-07-26T04:13:31.984Z,989.70
2022-07-26T04:14:32.537Z,989.68
2022-07-26T04:15:32.024Z,989.67
2022-07-26T04:16:31.994Z,989.63
2022-07-26T04:17:31.935Z,989.61
2022-07-26T04:18:31.986Z,989.65
2022-07-26T04:19:31.958Z,989.68
2022-07-26T04:20:31.962Z,989.73
2022-07-26T04:21:32.022Z,989.71
2022-07-26T04:22:31.909Z,989.73
2022-07-26T04:23:31.881Z,989.68
2022-07-26T04:24:31.878Z,989.72
2022-07-26T04:25:40.653Z,989.73
2022-07-26T04:26:32.874Z,989.78
2022-07-26T04:27:31.833Z,989.74
2022-07-26T04:28:31.838Z,989.77
2022-07-26T04:29:31.825Z,989.76
2022-07-26T04:30:31.871Z,989.79
2022-07-26T04:31:34.881Z,989.79
2022-07-26T04:32:32.829Z,989.75
2022-07-26T04:33:31.778Z,989.76
2022-07-26T04:34:31.770Z,989.76
2022-07-26T04:35:31.759Z,989.75
2022-07-26T04:36:31.748Z,989.78
2022-07-26T04:37:31.742Z,989.80
2022-07-26T04:38:31.730Z,989.82
2022-07-26T04:39:31.707Z,989.87
2022-07-26T04:40:31.711Z,989.82
2022-07-26T04:41:31.712Z,989.91
2022-07-26T04:42:31.678Z,989.88
2022-07-26T04:43:31.689Z,989.95
2022-07-26T04:44:31.740Z,989.94
2022-07-26T04:45:31.634Z,989.89
2022-07-26T04:46:31.752Z,989.95
2022-07-26T04:47:31.729Z,990.00
2022-07-26T04:48:31.694Z,989.98
2022-07-26T04:49:31.615Z,989.97
2022-07-26T04:50:31.598Z,989.95
2022-07-26T04:51:31.618Z,989.93
2022-07-26T04:52:31.630Z,989.98
2022-07-26T04:53:31.735Z,989.97
2022-07-26T04:54:31.570Z,989.95
2022-07-26T04:55:31.525Z,989.98
2022-07-26T04:56:31.563Z,989.93
2022-07-26T04:57:31.512Z,989.98
2022-07-26T04:58:31.515Z,990.01
2022-07-26T04:59:32.668Z,989.97
2022-07-26T05:00:31.493Z,990.05
2022-07-26T05:01:31.581Z,989.99
2022-07-26T05:02:31.725Z,989.97
2022-07-26T05:03:31.911Z,989.97
2022-07-26T05:04:31.595Z,989.93
2022-07-26T05:05:31.437Z,989.96
2022-07-26T05:06:31.412Z,990.02
2022-07-26T05:07:31.416Z,989.97
2022-07-26T05:08:31.409Z,989.92
2022-07-26T05:09:31.360Z,990.05
2022-07-26T05:10:31.382Z,990.02
2022-07-26T05:11:31.374Z,990.08
2022-07-26T05:12:31.357Z,989.94
2022-07-26T05:13:31.369Z,990.02
2022-07-26T05:14:31.354Z,990.00
2022-07-26T05:15:35.106Z,990.01
2022-07-26T05:16:31.399Z,990.02
2022-07-26T05:17:31.354Z,990.02
2022-07-26T05:18:31.721Z,990.01
2022-07-26T05:19:32.298Z,990.03
2022-07-26T05:20:31.317Z,990.05
2022-07-26T05:21:31.482Z,990.01
2022-07-26T05:22:31.242Z,990.02
2022-07-26T05:23:31.298Z,990.07
2022-07-26T05:24:31.286Z,990.05
2022-07-26T05:25:31.242Z,990.04
2022-07-26T05:26:31.243Z,990.08
2022-07-26T05:27:31.165Z,990.08
2022-07-26T05:28:31.202Z,990.10
2022-07-26T05:29:31.218Z,990.13
2022-07-26T05:30:31.237Z,990.14
2022-07-26T05:31:31.242Z,990.15
2022-07-26T05:32:31.142Z,990.17
2022-07-26T05:33:31.114Z,990.14
2022-07-26T05:34:31.189Z,990.07
2022-07-26T05:35:31.145Z,990.06
2022-07-26T05:36:31.150Z,990.09
2022-07-26T05:37:31.193Z,990.06
2022-07-26T05:38:33.092Z,990.10
2022-07-26T05:39:31.074Z,990.13
2022-07-26T05:40:31.061Z,990.15
2022-07-26T05:41:31.030Z,990.20
2022-07-26T05:42:31.021Z,990.13
2022-07-26T05:43:41.639Z,990.12
2022-07-26T05:44:32.014Z,990.16
2022-07-26T05:45:31.090Z,990.13
2022-07-26T05:46:31.066Z,990.12
2022-07-26T05:47:31.007Z,990.18
2022-07-26T05:48:31.062Z,990.28
2022-07-26T05:49:39.919Z,990.15
2022-07-26T05:50:31.993Z,990.19
2022-07-26T05:51:30.966Z,990.16
2022-07-26T05:52:30.914Z,990.07
2022-07-26T05:53:30.986Z,990.10
2022-07-26T05:54:30.910Z,990.17
2022-07-26T05:55:30.930Z,990.22
2022-07-26T05:56:30.896Z,990.14
2022-07-26T05:57:30.961Z,990.18
2022-07-26T05:58:30.891Z,990.15
2022-07-26T05:59:30.847Z,990.16
2022-07-26T06:00:30.862Z,990.19
2022-07-26T06:01:30.927Z,990.17
2022-07-26T06:02:32.591Z,990.16
2022-07-26T06:03:30.788Z,990.17
2022-07-26T06:04:32.488Z,990.23
2022-07-26T06:05:30.816Z,990.22
2022-07-26T06:06:31.099Z,990.23
2022-07-26T06:07:30.886Z,990.27
2022-07-26T06:08:30.746Z,990.22
2022-07-26T06:09:30.847Z,990.24
2022-07-26T06:10:30.743Z,990.23
2022-07-26T06:11:30.703Z,990.16
2022-07-26T06:12:30.692Z,990.24
2022-07-26T06:13:30.909Z,990.20
2022-07-26T06:14:30.670Z,990.26
2022-07-26T06:15:30.731Z,990.21
2022-07-26T06:16:30.836Z,990.28
2022-07-26T06:17:30.811Z,990.22
2022-07-26T06:18:30.722Z,990.22
2022-07-26T06:19:30.716Z,990.28
2022-07-26T06:20:30.658Z,990.19
2022-07-26T06:21:30.690Z,990.34
2022-07-26T06:22:30.638Z,990.26
2022-07-26T06:23:33.590Z,990.26
2022-07-26T06:24:30.639Z,990.31
2022-07-26T06:25:30.591Z,990.39
2022-07-26T06:26:30.568Z,990.34
2022-07-26T06:27:30.583Z,990.31
2022-07-26T06:28:30.523Z,990.26
2022-07-26T06:29:32.404Z,990.26
2022-07-26T06:30:30.642Z,990.24
2022-07-26T06:31:30.650Z,990.23
2022-07-26T06:32:30.540Z,990.30
2022-07-26T06:33:30.494Z,990.23
2022-07-26T06:34:30.491Z,990.20
2022-07-26T06:35:30.508Z,990.17
2022-07-26T06:36:31.246Z,990.22
2022-07-26T06:37:31.432Z,990.19
2022-07-26T06:38:30.456Z,990.29
2022-07-26T06:39:30.407Z,990.24
2022-07-26T06:40:30.464Z,990.22
2022-07-26T06:41:30.376Z,990.21
2022-07-26T06:42:30.433Z,990.18
2022-07-26T06:43:30.348Z,990.27
2022-07-26T06:44:30.385Z,990.30
2022-07-26T06:45:30.465Z,990.28
2022-07-26T06:46:30.365Z,990.30
2022-07-26T06:47:30.828Z,990.40
2022-07-26T06:48:30.445Z,990.43
2022-07-26T06:49:30.363Z,990.43
2022-07-26T06:50:30.268Z,990.38
2022-07-26T06:51:30.261Z,990.36
2022-07-26T06:52:30.261Z,990.35
2022-07-26T06:53:30.245Z,990.41
2022-07-26T06:54:30.325Z,990.39
2022-07-26T06:55:30.247Z,990.47
2022-07-26T06:56:30.238Z,990.48
2022-07-26T06:57:30.460Z,990.48
2022-07-26T06:58:30.205Z,990.43
2022-07-26T06:59:30.193Z,990.46
2022-07-26T07:00:30.188Z,990.54
2022-07-26T07:01:58.003Z,990.61
2022-07-26T07:02:31.202Z,990.55
2022-07-26T07:03:30.165Z,990.49
2022-07-26T07:04:30.266Z,990.59
2022-07-26T07:05:31.157Z,990.50
2022-07-26T07:06:30.153Z,990.60
2022-07-26T07:07:30.229Z,990.58
2022-07-26T07:08:30.097Z,990.65
2022-07-26T07:09:30.121Z,990.56
2022-07-26T07:10:30.053Z,990.60
2022-07-26T07:11:30.952Z,990.61
2022-07-26T07:12:30.301Z,990.54
2022-07-26T07:13:30.944Z,990.62
2022-07-26T07:14:30.009Z,990.62
2022-07-26T07:15:30.209Z,990.62
2022-07-26T07:16:30.084Z,990.60
2022-07-26T07:17:30.036Z,990.63
2022-07-26T07:18:30.046Z,990.65
2022-07-26T07:19:30.024Z,990.68
2022-07-26T07:20:29.961Z,990.63
2022-07-26T07:21:29.962Z,990.61
2022-07-26T07:22:29.996Z,990.63
2022-07-26T07:23:29.938Z,990.67
2022-07-26T07:24:29.981Z,990.62
2022-07-26T07:25:30.975Z,990.67
2022-07-26T07:26:29.937Z,990.69
2022-07-26T07:27:29.977Z,990.69
2022-07-26T07:28:29.969Z,990.70
2022-07-26T07:29:29.860Z,990.71
2022-07-26T07:30:29.980Z,990.74
2022-07-26T07:31:30.578Z,990.73
2022-07-26T07:32:31.013Z,990.77
2022-07-26T07:33:32.147Z,990.70
2022-07-26T07:34:31.018Z,990.71
2022-07-26T07:35:31.605Z,990.73
2022-07-26T07:36:29.788Z,990.75
2022-07-26T07:37:52.899Z,990.76
2022-07-26T07:38:30.755Z,990.73
2022-07-26T07:39:34.905Z,990.73
2022-07-26T07:40:30.790Z,990.73
2022-07-26T07:41:29.731Z,990.68
2022-07-26T07:42:29.742Z,990.75
2022-07-26T07:43:29.691Z,990.70
2022-07-26T07:44:29.775Z,990.76
2022-07-26T07:45:29.774Z,990.77
2022-07-26T07:46:29.752Z,990.75
2022-07-26T07:47:29.660Z,990.70
2022-07-26T07:48:29.704Z,990.75
2022-07-26T07:49:29.727Z,990.78
2022-07-26T07:50:29.627Z,990.77
2022-07-26T07:51:29.643Z,990.70
2022-07-26T07:52:29.720Z,990.74
2022-07-26T07:53:30.485Z,990.78
2022-07-26T07:54:29.626Z,990.75
2022-07-26T07:55:41.433Z,990.73
2022-07-26T07:56:31.592Z,990.71
2022-07-26T07:57:29.573Z,990.71
2022-07-26T07:58:29.552Z,990.74
2022-07-26T07:59:29.518Z,990.68
2022-07-26T08:00:29.512Z,990.69
2022-07-26T08:01:40.268Z,990.71
2022-07-26T08:02:30.786Z,990.73
2022-07-26T08:03:38.086Z,990.71
2022-07-26T08:04:30.559Z,990.73
2022-07-26T08:05:31.678Z,990.71
2022-07-26T08:06:29.458Z,990.81
2022-07-26T08:07:33.005Z,990.79
2022-07-26T08:08:30.637Z,990.74
2022-07-26T08:09:29.380Z,990.73
2022-07-26T08:10:29.421Z,990.76
2022-07-26T08:11:30.043Z,990.75
2022-07-26T08:12:29.395Z,990.80
2022-07-26T08:13:30.335Z,990.81
2022-07-26T08:14:29.397Z,990.80
2022-07-26T08:15:29.359Z,990.87
2022-07-26T08:16:30.341Z,990.83
2022-07-26T08:17:29.357Z,990.85
2022-07-26T08:18:29.911Z,990.86
2022-07-26T08:19:41.479Z,990.86
2022-07-26T08:20:30.435Z,990.90
2022-07-26T08:21:29.581Z,990.89
2022-07-26T08:22:29.365Z,990.93
2022-07-26T08:23:29.285Z,990.93
2022-07-26T08:24:29.969Z,990.91
2022-07-26T08:25:29.449Z,990.99
2022-07-26T08:26:29.309Z,990.96
2022-07-26T08:27:29.195Z,990.99
2022-07-26T08:29:31.281Z,990.96
2022-07-26T08:30:29.791Z,990.92
2022-07-26T08:31:29.320Z,990.96
2022-07-26T08:32:29.332Z,990.94
2022-07-26T08:33:29.997Z,990.93
2022-07-26T08:34:29.208Z,990.96
2022-07-26T08:35:29.164Z,990.96
2022-07-26T08:36:32.744Z,991.01
2022-07-26T08:37:30.533Z,990.96
2022-07-26T08:38:29.124Z,991.01
2022-07-26T08:39:29.081Z,990.96
2022-07-26T08:40:30.071Z,991.02
2022-07-26T08:41:29.255Z,990.99
2022-07-26T08:42:29.936Z,990.93
2022-07-26T08:43:29.328Z,990.98
2022-07-26T08:44:30.107Z,990.95
2022-07-26T08:45:29.845Z,990.97
2022-07-26T08:46:29.434Z,990.97
2022-07-26T08:47:40.009Z,990.97
2022-07-26T08:48:30.182Z,990.92
2022-07-26T08:49:29.221Z,990.96
2022-07-26T08:50:29.346Z,990.92
2022-07-26T08:51:30.014Z,990.93
2022-07-26T08:52:29.212Z,990.96
2022-07-26T08:53:29.018Z,990.93
2022-07-26T08:54:28.988Z,990.93
2022-07-26T08:55:32.327Z,990.99
2022-07-26T08:56:30.936Z,990.96
2022-07-26T08:57:28.942Z,990.96
2022-07-26T08:58:29.074Z,991.04
2022-07-26T08:59:28.905Z,990.94
2022-07-26T09:00:28.908Z,991.04
2022-07-26T09:01:29.208Z,991.02
2022-07-26T09:02:28.955Z,991.04
2022-07-26T09:03:28.871Z,991.05
2022-07-26T09:04:32.121Z,991.07
2022-07-26T09:05:30.493Z,991.09
2022-07-26T09:06:28.825Z,991.11
2022-07-26T09:07:28.805Z,991.12
2022-07-26T09:08:28.970Z,991.18
2022-07-26T09:09:28.836Z,991.20
2022-07-26T09:10:28.748Z,991.13
2022-07-26T09:11:28.767Z,991.20
2022-07-26T09:12:28.723Z,991.18
2022-07-26T09:13:28.705Z,991.16
2022-07-26T09:14:28.747Z,991.24
2022-07-26T09:15:28.713Z,991.20
2022-07-26T09:16:28.772Z,991.29
2022-07-26T09:17:28.775Z,991.19
2022-07-26T09:18:28.808Z,991.22
2022-07-26T09:19:28.686Z,991.22
2022-07-26T09:20:28.673Z,991.30
2022-07-26T09:21:28.758Z,991.23
2022-07-26T09:22:28.638Z,991.29
2022-07-26T09:23:28.603Z,991.32
2022-07-26T09:24:28.671Z,991.33
2022-07-26T09:25:29.493Z,991.32
2022-07-26T09:26:28.628Z,991.33
2022-07-26T09:27:28.572Z,991.40
2022-07-26T09:28:28.630Z,991.39
2022-07-26T09:29:28.533Z,991.36
2022-07-26T09:30:28.551Z,991.40
2022-07-26T09:31:28.639Z,991.39
2022-07-26T09:32:28.551Z,991.37
2022-07-26T09:33:28.507Z,991.40
2022-07-26T09:34:29.339Z,991.44
2022-07-26T09:35:51.354Z,991.47
2022-07-26T09:36:31.463Z,991.39
2022-07-26T09:37:28.524Z,991.49
2022-07-26T09:38:28.455Z,991.44
2022-07-26T09:39:33.757Z,991.46
2022-07-26T09:40:28.445Z,991.44
2022-07-26T09:41:28.449Z,991.49
2022-07-26T09:42:29.660Z,991.42
2022-07-26T09:43:29.445Z,991.48
2022-07-26T09:44:28.416Z,991.53
2022-07-26T09:45:28.454Z,991.47
2022-07-26T09:46:28.478Z,991.47
2022-07-26T09:47:28.384Z,991.51
2022-07-26T09:48:36.596Z,991.43
2022-07-26T09:49:40.677Z,991.48
2022-07-26T09:50:30.412Z,991.50
2022-07-26T09:51:28.332Z,991.47
2022-07-26T09:52:28.323Z,991.41
2022-07-26T09:53:28.326Z,991.47
2022-07-26T09:54:28.825Z,991.47
2022-07-26T09:55:36.449Z,991.48
2022-07-26T09:56:30.657Z,991.48
2022-07-26T09:57:28.548Z,991.45
2022-07-26T09:58:28.737Z,991.42
2022-07-26T09:59:28.339Z,991.42
2022-07-26T10:00:28.324Z,991.43
2022-07-26T10:01:28.371Z,991.48
2022-07-26T10:02:28.689Z,991.46
2022-07-26T10:03:28.261Z,991.50
2022-07-26T10:04:28.248Z,991.45
2022-07-26T10:05:28.148Z,991.47
2022-07-26T10:06:30.493Z,991.48
2022-07-26T10:07:29.185Z,991.49
2022-07-26T10:08:29.025Z,991.47
2022-07-26T10:09:28.123Z,991.46
2022-07-26T10:10:28.245Z,991.44
2022-07-26T10:11:28.140Z,991.54
2022-07-26T10:12:30.622Z,991.55
2022-07-26T10:13:28.492Z,991.50
2022-07-26T10:14:28.109Z,991.51
2022-07-26T10:15:28.093Z,991.44
2022-07-26T10:16:28.123Z,991.49
2022-07-26T10:17:30.924Z,991.41
2022-07-26T10:18:28.006Z,991.50
2022-07-26T10:19:28.097Z,991.54
2022-07-26T10:20:28.126Z,991.56
2022-07-26T10:21:28.877Z,991.53
2022-07-26T10:22:28.029Z,991.50
2022-07-26T10:23:28.309Z,991.51
2022-07-26T10:24:28.000Z,991.52
2022-07-26T10:25:28.086Z,991.53
2022-07-26T10:26:27.994Z,991.53
2022-07-26T10:27:27.965Z,991.54
2022-07-26T10:28:27.924Z,991.54
2022-07-26T10:29:28.844Z,991.49
2022-07-26T10:30:34.428Z,991.51
2022-07-26T10:31:30.155Z,991.55
2022-07-26T10:32:27.917Z,991.54
2022-07-26T10:33:28.006Z,991.51
2022-07-26T10:34:27.824Z,991.53
2022-07-26T10:35:27.957Z,991.54
2022-07-26T10:36:27.908Z,991.51
2022-07-26T10:37:28.124Z,991.55
2022-07-26T10:38:28.493Z,991.51
2022-07-26T10:39:27.804Z,991.57
2022-07-26T10:40:27.761Z,991.46
2022-07-26T10:41:27.790Z,991.55
2022-07-26T10:42:27.724Z,991.50
2022-07-26T10:43:40.622Z,991.51
2022-07-26T10:44:29.854Z,991.46
2022-07-26T10:45:27.734Z,991.48
2022-07-26T10:46:27.860Z,991.50
2022-07-26T10:47:32.037Z,991.52
2022-07-26T10:48:28.806Z,991.45
2022-07-26T10:49:27.766Z,991.50
2022-07-26T10:50:27.759Z,991.57
2022-07-26T10:51:29.154Z,991.51
2022-07-26T10:52:27.664Z,991.47
2022-07-26T10:53:27.664Z,991.37
2022-07-26T10:54:27.691Z,991.43
2022-07-26T10:55:28.508Z,991.39
2022-07-26T10:56:33.059Z,991.46
2022-07-26T10:57:28.807Z,991.49
2022-07-26T10:58:27.802Z,991.42
2022-07-26T10:59:53.209Z,991.41
2022-07-26T11:00:29.582Z,991.35
2022-07-26T11:01:27.619Z,991.34
2022-07-26T11:02:27.620Z,991.38
2022-07-26T11:03:27.588Z,991.37
2022-07-26T11:04:27.530Z,991.41
2022-07-26T11:05:27.525Z,991.40
2022-07-26T11:06:27.497Z,991.39
2022-07-26T11:07:27.532Z,991.37
2022-07-26T11:08:27.504Z,991.43
2022-07-26T11:09:27.436Z,991.34
2022-07-26T11:10:27.465Z,991.40
2022-07-26T11:11:27.517Z,991.44
2022-07-26T11:12:27.485Z,991.36
2022-07-26T11:13:27.467Z,991.36
2022-07-26T11:14:27.485Z,991.38
2022-07-26T11:15:28.372Z,991.36
2022-07-26T11:16:27.455Z,991.31
2022-07-26T11:17:27.413Z,991.30
2022-07-26T11:18:27.372Z,991.28
2022-07-26T11:19:27.352Z,991.30
2022-07-26T11:20:29.780Z,991.33
2022-07-26T11:21:28.453Z,991.36
2022-07-26T11:22:27.520Z,991.34
2022-07-26T11:23:28.355Z,991.34
2022-07-26T11:24:27.724Z,991.33
2022-07-26T11:25:27.314Z,991.26
2022-07-26T11:26:27.404Z,991.33
2022-07-26T11:27:27.277Z,991.35
2022-07-26T11:28:27.258Z,991.30
2022-07-26T11:29:38.073Z,991.32
2022-07-26T11:30:28.565Z,991.33
2022-07-26T11:31:48.175Z,991.38
2022-07-26T11:32:28.379Z,991.33
2022-07-26T11:33:28.592Z,991.30
2022-07-26T11:34:27.219Z,991.30
2022-07-26T11:35:29.917Z,991.31
2022-07-26T11:36:27.441Z,991.31
2022-07-26T11:37:27.271Z,991.33
2022-07-26T11:38:27.229Z,991.23
2022-07-26T11:39:27.334Z,991.26
2022-07-26T11:40:27.110Z,991.25
2022-07-26T11:41:34.532Z,991.30
2022-07-26T11:42:28.982Z,991.32
2022-07-26T11:43:27.101Z,991.34
2022-07-26T11:44:27.106Z,991.23
2022-07-26T11:45:27.095Z,991.30
2022-07-26T11:46:27.155Z,991.28
2022-07-26T11:47:27.106Z,991.28
2022-07-26T11:48:27.310Z,991.21
2022-07-26T11:49:51.910Z,991.28
2022-07-26T11:50:29.517Z,991.25
2022-07-26T11:51:27.006Z,991.28
2022-07-26T11:52:27.024Z,991.23
2022-07-26T11:53:27.009Z,991.23
2022-07-26T11:54:27.357Z,991.26
2022-07-26T11:55:26.960Z,991.24
2022-07-26T11:56:27.010Z,991.27
2022-07-26T11:57:26.950Z,991.21
2022-07-26T11:58:26.946Z,991.30
2022-07-26T11:59:27.038Z,991.22
2022-07-26T12:00:26.983Z,991.35
2022-07-26T12:01:26.885Z,991.26
2022-07-26T12:02:27.483Z,991.32
2022-07-26T12:03:27.186Z,991.29
2022-07-26T12:04:26.959Z,991.29
2022-07-26T12:05:27.087Z,991.38
2022-07-26T12:06:26.845Z,991.35
2022-07-26T12:07:26.843Z,991.33
2022-07-26T12:08:26.817Z,991.35
2022-07-26T12:09:26.835Z,991.31
2022-07-26T12:10:26.813Z,991.36
2022-07-26T12:11:26.765Z,991.31
2022-07-26T12:12:26.841Z,991.34
2022-07-26T12:13:26.754Z,991.34
2022-07-26T12:14:26.765Z,991.39
2022-07-26T12:15:26.929Z,991.38
2022-07-26T12:16:26.917Z,991.37
2022-07-26T12:17:26.729Z,991.34
2022-07-26T12:18:27.780Z,991.35
2022-07-26T12:19:26.686Z,991.40
2022-07-26T12:20:26.964Z,991.29
2022-07-26T12:21:26.738Z,991.40
2022-07-26T12:22:26.760Z,991.23
2022-07-26T12:23:26.678Z,991.29
2022-07-26T12:24:26.687Z,991.25
2022-07-26T12:25:26.687Z,991.18
2022-07-26T12:26:26.673Z,991.23
2022-07-26T12:27:26.632Z,991.21
2022-07-26T12:28:26.624Z,991.18
2022-07-26T12:29:26.666Z,991.16